Apellis — 3FJT2 — position and weather

sailwx.info

Track history (hours):
 
Tides and Currents Weather Stations Pressure Air Temp Water Temp Dewpoint Dewpoint Depression Visibility Wind Speed Wind Dir Waves Ship Positions

Apellis

Last reported at 2015-Feb-24 15:33 UTC. Time now 2015-Mar-05 20:17 UTC.
Position N 41°26' E 029°16'.
Warning: this ship's position is 9 days out of date.

Length 178 m; draft 6.1 m.

Type: Cargo ship. MMSI: 353847000.

Date/timePositionNaut miles runAvg speedWind from/ knotsBaromVisibWave heightAir tempDewpointWater temp
2015-Feb-24 15:33N 41°26' E 029°16'1110.9
2015-Feb-24 14:33N 41°16' E 029°11'18 8.5
2015-Feb-24 12:24N 40°60' E 028°60'6 7.5
2015-Feb-24 11:33N 40°54' E 028°56'8 8.3
2015-Feb-24 10:32N 40°51' E 028°46'6 6.1
2015-Feb-24 09:33N 40°47' E 028°39'1 0.4
2015-Feb-24 07:32N 40°47' E 028°38'1 0.4
2015-Feb-24 05:22N 40°46' E 028°38'3 1.6
2015-Feb-24 03:33N 40°47' E 028°41'2 1.7
2015-Feb-24 02:31N 40°48' E 028°44'2 1.8
2015-Feb-24 01:33N 40°49' E 028°44'10 9.5
2015-Feb-24 00:27N 40°49' E 028°30'25110.0
2015-Feb-22 23:17N 37°55' E 024°36'  
Track history (hours):
 
Tides and Currents Weather Stations Pressure Air Temp Water Temp Dewpoint Dewpoint Depression Visibility Wind Speed Wind Dir Waves Ship Positions

Apellis

Last reported at 2015-Feb-24 15:33 UTC. Time now 2015-Mar-05 20:17 UTC.
Position N 41°26' E 029°16'.
Warning: this ship's position is 9 days out of date.

Length 178 m; draft 6.1 m.

Type: Cargo ship. MMSI: 353847000.

Date/timePositionNaut miles runAvg speedWind from/ knotsBaromVisibWave heightAir tempDewpointWater temp
2015-Feb-24 15:33N 41°26' E 029°16'1110.9
2015-Feb-24 14:33N 41°16' E 029°11'18 8.5
2015-Feb-24 12:24N 40°60' E 028°60'6 7.5
2015-Feb-24 11:33N 40°54' E 028°56'8 8.3
2015-Feb-24 10:32N 40°51' E 028°46'6 6.1
2015-Feb-24 09:33N 40°47' E 028°39'1 0.4
2015-Feb-24 07:32N 40°47' E 028°38'1 0.4
2015-Feb-24 05:22N 40°46' E 028°38'3 1.6
2015-Feb-24 03:33N 40°47' E 028°41'2 1.7
2015-Feb-24 02:31N 40°48' E 028°44'2 1.8
2015-Feb-24 01:33N 40°49' E 028°44'10 9.5
2015-Feb-24 00:27N 40°49' E 028°30'25110.0
2015-Feb-22 23:17N 37°55' E 024°36'  

Dump ship's entire track history